Back to top

Rock Springs, WY weather

Rock Springs-Sweetwater County Airport, Rock Springs, WY: 7/22/2019 13:54
Visibility10 statute milessun with a few clouds
View 7-Day Forecast
Area Summary
Sky/CloudsFew at 9000ft
Weather [last 24 hours]None
Pressure30.32 in.Hg (1027 hPa)
Dew Point39.9 °F (4.4 °C)
Relative Humidity19.1 %
Temperature87.1 °F (30.6 °C)red thermometer
Reading TimeMinimum to Maximum Temperature
6-hr ending 7/22@11:5455 °F to 82.9 °F (12.8 °C to 28.3 °C)
6-hr ending 7/22@05:5455.9 °F to 68 °F (13.3 °C to 20 °C)
6-hr ending 7/21@23:5466.9 °F to 87.1 °F (19.4 °C to 30.6 °C)
6-hr ending 7/21@17:5479 °F to 90 °F (26.1 °C to 32.2 °C)
24-hr ending 7/22@00:5457 °F to 90 °F (13.9 °C to 32.2 °C)
Wind10.4 MPH (9 KT) green arrow pointing at 0 degrees
Wind FromNorth (010 Degrees)
Rolling 24-hr Peak Wind34.5 MPH (30 KT) on 7/21@21:04
Rolling 24-hr Peak Wind FromNorth/Northeast (030 Degrees)
Twilight Begins05:28Sunshine Yesterday
Sunrise06:00N/A
Sunset20:45
Twilight Ends21:17
RemarksLTG, DSNT, NE, AND, S, AND, SW
METARKRKS 221954Z AUTO 01009KT 330V030 10SM FEW090 31/04 A3032 RMK AO2 LTG DSNT NE AND S AND SW SLP168 T03060044
Tags: